^^
De Soto Valley Weather Station Historical Data
 
Daily Summary for March 29, 2020 Units:  English    Metric   Both
Daily Weekly Monthly Yearly Custom
  Current: High: Low: Average:
Temperature: 40.4 °F 50.9 °F 40.1 °F 45.4 °F
Dew Point: 39.1 °F 50.0 °F 38.8 °F 44.1 °F
Humidity: 95% 100% 88% 95%
Wind Speed: 5.0mph 11.5mph 0.0mph 2.4mph
Wind Gust: 12.0mph 16.0mph - -
WindSSE - - SSW
Pressure: 29.36 in 29.36 in 29.13 in -
Precipitation: 0.04 in      
Historical Graphs
 
 
Tabular Data for March 29, 2020
Time Temperature Dew Point Pressure Wind Wind Speed Wind Gust Humidity Rainfall Rate (Hourly) solar
00:00 45.6 °F 45.4 °F 29.23 in Calm     99% 0.00 in 0.00 W/m2
00:05 45.6 °F 45.3 °F 29.23 in Calm   1.0 mph 99% 0.00 in 0.00 W/m2
00:10 45.8 °F 45.6 °F 29.23 in Calm     99% 0.00 in 0.00 W/m2
00:15 45.3 °F 45.0 °F 29.23 in Calm   1.0 mph 99% 0.00 in 0.00 W/m2
00:20 45.2 °F 44.9 °F 29.23 in Calm   1.0 mph 99% 0.00 in 0.00 W/m2
00:25 45.4 °F 45.1 °F 29.23 in Calm   1.0 mph 99% 0.00 in 0.00 W/m2
00:30 46.3 °F 46.3 °F 29.23 in NNE 3.5 mph 1.8 mph 100% 0.00 in 0.00 W/m2
00:35 47.6 °F 47.6 °F 29.23 in NE 1.0 mph 2.0 mph 100% 0.00 in 0.00 W/m2
00:40 48.5 °F 48.5 °F 29.22 in NNE 1.0 mph 4.0 mph 100% 0.00 in 0.00 W/m2
00:45 48.9 °F 48.9 °F 29.22 in NE 2.0 mph 4.0 mph 100% 0.00 in 0.00 W/m2
00:50 49.0 °F 49.0 °F 29.22 in NE 1.0 mph 4.0 mph 100% 0.00 in 0.00 W/m2
00:55 49.1 °F 49.1 °F 29.21 in NNE 2.0 mph 4.0 mph 100% 0.00 in 0.00 W/m2
01:00 49.2 °F 49.2 °F 29.21 in NNE 1.0 mph 4.0 mph 100% 0.00 in 0.00 W/m2
01:05 49.2 °F 49.2 °F 29.21 in Calm   4.0 mph 100% 0.00 in 0.00 W/m2
01:10 49.2 °F 49.2 °F 29.21 in Calm   6.0 mph 100% 0.00 in 0.00 W/m2
01:15 49.2 °F 49.2 °F 29.21 in Calm   4.0 mph 100% 0.00 in 0.00 W/m2
01:20 49.0 °F 49.0 °F 29.21 in North 3.0 mph 10.0 mph 100% 0.00 in 0.00 W/m2
01:25 49.2 °F 49.2 °F 29.21 in West 3.0 mph 9.0 mph 100% 0.00 in 0.00 W/m2
01:30 49.5 °F 49.5 °F 29.20 in WSW 2.0 mph 9.0 mph 100% 0.00 in 0.00 W/m2
01:35 49.7 °F 49.4 °F 29.20 in West 3.0 mph 6.0 mph 99% 0.00 in 0.00 W/m2
01:40 49.9 °F 49.6 °F 29.20 in West 1.0 mph 3.0 mph 99% 0.00 in 0.00 W/m2
01:45 50.1 °F 49.8 °F 29.20 in Calm   4.0 mph 99% 0.00 in 0.00 W/m2
01:50 50.1 °F 49.8 °F 29.20 in WSW 2.0 mph 10.0 mph 99% 0.00 in 0.00 W/m2
01:55 50.2 °F 49.7 °F 29.20 in Calm   4.0 mph 98% 0.00 in 0.00 W/m2
02:00 50.6 °F 50.0 °F 29.20 in NNE 3.0 mph 8.0 mph 98% 0.00 in 0.00 W/m2
02:05 50.7 °F 49.9 °F 29.19 in Calm   4.0 mph 97% 0.00 in 0.00 W/m2
02:10 50.7 °F 49.9 °F 29.19 in Calm   2.0 mph 97% 0.00 in 0.00 W/m2
02:15 50.8 °F 49.7 °F 29.19 in NNW 1.0 mph 4.0 mph 96% 0.00 in 0.00 W/m2
02:20 50.9 °F 49.5 °F 29.18 in Calm   1.0 mph 95% 0.00 in 0.00 W/m2
02:25 50.9 °F 49.2 °F 29.18 in WNW 5.0 mph 7.0 mph 94% 0.00 in 0.00 W/m2
02:30 50.9 °F 48.9 °F 29.18 in West 2.0 mph 10.0 mph 93% 0.00 in 0.00 W/m2
02:35 50.9 °F 48.9 °F 29.18 in WSW 3.0 mph 7.0 mph 93% 0.00 in 0.00 W/m2
02:40 50.8 °F 48.6 °F 29.18 in Calm   5.0 mph 92% 0.00 in 0.00 W/m2
02:45 50.8 °F 48.6 °F 29.18 in NW 1.0 mph 9.0 mph 92% 0.00 in 0.00 W/m2
02:50 50.8 °F 48.3 °F 29.17 in NW 3.0 mph 4.0 mph 91% 0.00 in 0.00 W/m2
02:55 50.7 °F 48.2 °F 29.17 in WNW 2.0 mph 7.0 mph 91% 0.00 in 0.00 W/m2
03:00 50.6 °F 48.1 °F 29.16 in West 3.0 mph 12.0 mph 91% 0.00 in 0.00 W/m2
03:05 50.5 °F 47.7 °F 29.16 in West 1.0 mph 7.0 mph 90% 0.00 in 0.00 W/m2
03:10 50.5 °F 47.7 °F 29.16 in SSW 6.0 mph 9.0 mph 90% 0.00 in 0.00 W/m2
03:15 50.4 °F 47.3 °F 29.16 in West 2.0 mph 6.0 mph 89% 0.00 in 0.00 W/m2
03:20 50.3 °F 47.2 °F 29.16 in West 3.0 mph 12.0 mph 89% 0.00 in 0.00 W/m2
03:25 50.3 °F 47.2 °F 29.16 in WSW 6.0 mph 12.0 mph 89% 0.00 in 0.00 W/m2
03:30 50.2 °F 46.8 °F 29.16 in SW 3.0 mph 7.0 mph 88% 0.00 in 0.00 W/m2
03:35 50.1 °F 46.7 °F 29.16 in WSW 6.0 mph 10.0 mph 88% 0.00 in 0.00 W/m2
03:40 49.9 °F 46.8 °F 29.16 in West 3.0 mph 9.0 mph 89% 0.00 in 0.00 W/m2
03:45 49.7 °F 46.6 °F 29.15 in NW 3.0 mph 9.0 mph 89% 0.00 in 0.00 W/m2
03:50 49.6 °F 46.2 °F 29.15 in WNW 6.0 mph 10.0 mph 88% 0.00 in 0.00 W/m2
03:55 49.5 °F 46.1 °F 29.15 in WNW 3.0 mph 6.0 mph 88% 0.00 in 0.00 W/m2
04:00 49.4 °F 46.0 °F 29.15 in WNW 1.0 mph 9.0 mph 88% 0.00 in 0.00 W/m2
04:05 49.1 °F 45.7 °F 29.15 in WNW 3.0 mph 10.0 mph 88% 0.00 in 0.00 W/m2
04:10 48.9 °F 45.5 °F 29.15 in West 2.0 mph 10.0 mph 88% 0.00 in 0.00 W/m2
04:15 48.8 °F 45.4 °F 29.14 in Calm   10.0 mph 88% 0.00 in 0.00 W/m2
04:20 48.7 °F 45.6 °F 29.15 in WSW 2.0 mph 9.0 mph 89% 0.00 in 0.00 W/m2
04:25 48.6 °F 45.5 °F 29.14 in SW 5.0 mph 9.0 mph 89% 0.00 in 0.00 W/m2
04:30 48.4 °F 45.3 °F 29.14 in SW 1.0 mph 9.0 mph 89% 0.00 in 0.00 W/m2
04:35 48.2 °F 45.5 °F 29.14 in SW 1.0 mph 3.0 mph 90% 0.00 in 0.00 W/m2
04:40 48.0 °F 45.5 °F 29.13 in SW 2.0 mph 5.0 mph 91% 0.00 in 0.00 W/m2
04:45 47.8 °F 45.6 °F 29.13 in Calm   5.0 mph 92% 0.00 in 0.00 W/m2
04:50 47.6 °F 45.6 °F 29.13 in WSW 3.0 mph 6.0 mph 93% 0.00 in 0.00 W/m2
04:55 47.2 °F 45.3 °F 29.13 in WSW 5.0 mph 8.0 mph 93% 0.00 in 0.00 W/m2
05:00 46.9 °F 45.0 °F 29.13 in SW 3.0 mph 7.0 mph 93% 0.00 in 0.00 W/m2
05:05 46.8 °F 44.9 °F 29.13 in SW 2.0 mph 10.0 mph 93% 0.00 in 0.00 W/m2
05:10 46.6 °F 45.0 °F 29.13 in West 4.0 mph 0.8 mph 94% 0.00 in 0.00 W/m2
05:15 46.5 °F 44.9 °F 29.13 in SE 3.5 mph 1.1 mph 94% 0.00 in 0.00 W/m2
05:20 46.4 °F 44.8 °F 29.13 in Calm   2.0 mph 94% 0.00 in 0.00 W/m2
05:25 46.4 °F 44.8 °F 29.13 in Calm   4.0 mph 94% 0.00 in 0.00 W/m2
05:30 46.2 °F 44.6 °F 29.13 in WSW 1.0 mph 5.0 mph 94% 0.00 in 0.00 W/m2
05:35 46.0 °F 44.4 °F 29.13 in WSW 1.0 mph 7.0 mph 94% 0.00 in 0.00 W/m2
05:40 45.8 °F 44.2 °F 29.14 in Calm   4.0 mph 94% 0.00 in 0.00 W/m2
05:45 45.5 °F 43.9 °F 29.14 in SW 1.0 mph 6.0 mph 94% 0.00 in 0.00 W/m2
05:50 45.4 °F 43.8 °F 29.14 in SW 3.0 mph 8.0 mph 94% 0.00 in 0.00 W/m2
05:55 45.2 °F 43.6 °F 29.14 in SW 1.0 mph 5.0 mph 94% 0.01 in 0.00 W/m2
06:00 45.1 °F 43.5 °F 29.14 in Calm   4.0 mph 94% 0.00 in 0.00 W/m2
06:05 44.9 °F 43.3 °F 29.14 in SW 1.0 mph 5.0 mph 94% 0.00 in 0.00 W/m2
06:10 44.7 °F 43.4 °F 29.15 in Calm   2.0 mph 95% 0.00 in 0.00 W/m2
06:15 44.5 °F 43.2 °F 29.15 in SW 2.0 mph 5.0 mph 95% 0.00 in 0.00 W/m2
06:20 44.2 °F 42.9 °F 29.15 in WSW 1.0 mph 5.0 mph 95% 0.01 in 0.00 W/m2
06:25 44.0 °F 42.7 °F 29.15 in WSW 1.0 mph 6.0 mph 95% 0.01 in 0.00 W/m2
06:30 43.8 °F 42.5 °F 29.15 in WSW 1.0 mph 5.0 mph 95% 0.00 in 0.00 W/m2
06:35 43.6 °F 42.3 °F 29.15 in SW 1.0 mph 5.0 mph 95% 0.00 in 0.00 W/m2
06:40 43.5 °F 42.2 °F 29.15 in Calm   4.0 mph 95% 0.00 in 0.00 W/m2
06:45 43.4 °F 42.1 °F 29.15 in Calm   4.0 mph 95% 0.00 in 0.00 W/m2
06:50 43.3 °F 42.0 °F 29.15 in WSW 1.0 mph 3.0 mph 95% 0.00 in 0.00 W/m2
06:55 43.2 °F 41.9 °F 29.15 in Calm   2.0 mph 95% 0.00 in 0.00 W/m2
07:00 43.2 °F 42.1 °F 29.15 in Calm   4.0 mph 96% 0.00 in 0.00 W/m2
07:05 43.1 °F 42.0 °F 29.15 in Calm   6.0 mph 96% 0.00 in 0.00 W/m2
07:10 43.1 °F 42.0 °F 29.15 in Calm     96% 0.00 in 0.00 W/m2
07:15 43.1 °F 42.0 °F 29.15 in Calm   2.0 mph 96% 0.00 in 0.00 W/m2
07:20 43.1 °F 42.0 °F 29.16 in Calm   1.0 mph 96% 0.00 in 0.00 W/m2
07:25 43.1 °F 42.0 °F 29.16 in Calm   1.0 mph 96% 0.00 in 0.00 W/m2
07:30 43.0 °F 42.0 °F 29.16 in Calm     96% 0.00 in 0.00 W/m2
07:35 43.0 °F 41.9 °F 29.16 in Calm     96% 0.00 in 0.00 W/m2
07:40 43.0 °F 42.2 °F 29.17 in Calm     97% 0.00 in 0.00 W/m2
07:45 43.0 °F 42.2 °F 29.17 in Calm     97% 0.00 in 0.00 W/m2
07:50 43.0 °F 42.2 °F 29.17 in Calm   6.0 mph 97% 0.00 in 0.00 W/m2
07:55 42.9 °F 42.1 °F 29.17 in Calm   1.0 mph 97% 0.00 in 0.00 W/m2
08:00 42.9 °F 42.1 °F 29.17 in Calm   1.0 mph 97% 0.00 in 0.00 W/m2
08:05 42.9 °F 42.1 °F 29.17 in WSW 1.0 mph 4.0 mph 97% 0.01 in 0.00 W/m2
08:10 42.9 °F 42.1 °F 29.18 in Calm   3.0 mph 97% 0.01 in 0.00 W/m2
08:15 43.0 °F 42.2 °F 29.18 in SSW 1.2 mph   97% 0.01 in 0.00 W/m2
08:20 43.0 °F 42.2 °F 29.18 in SW 4.6 mph 1.8 mph 97% 0.01 in 0.00 W/m2
08:25 43.0 °F 42.2 °F 29.18 in SW 2.0 mph 5.0 mph 97% 0.00 in 5.00 W/m2
08:30 42.9 °F 42.1 °F 29.19 in SW 1.0 mph 9.0 mph 97% 0.00 in 7.00 W/m2
08:35 42.6 °F 41.8 °F 29.19 in SSW 5.0 mph 13.0 mph 97% 0.00 in 9.00 W/m2
08:40 42.2 °F 41.4 °F 29.20 in SSW 5.0 mph 12.0 mph 97% 0.00 in 12.00 W/m2
08:45 42.0 °F 41.2 °F 29.20 in SSW 1.0 mph 9.0 mph 97% 0.00 in 14.00 W/m2
08:50 41.9 °F 41.1 °F 29.20 in SW 1.0 mph 5.0 mph 97% 0.00 in 12.00 W/m2
08:55 41.8 °F 41.0 °F 29.21 in SSW 2.0 mph 6.0 mph 97% 0.00 in 19.00 W/m2
09:00 41.8 °F 41.0 °F 29.21 in SSW 2.0 mph 6.0 mph 97% 0.00 in 25.00 W/m2
09:05 41.7 °F 40.9 °F 29.22 in SSW 5.0 mph 10.0 mph 97% 0.00 in 33.00 W/m2
09:10 41.5 °F 40.7 °F 29.22 in SSW 1.0 mph 6.0 mph 97% 0.00 in 32.00 W/m2
09:15 41.5 °F 40.7 °F 29.22 in South 11.5 mph 4.5 mph 97% 0.00 in 30.00 W/m2
09:20 41.4 °F 40.6 °F 29.22 in South 5.0 mph 9.0 mph 97% 0.00 in 30.00 W/m2
09:25 41.4 °F 40.6 °F 29.22 in SSW 2.0 mph 13.0 mph 97% 0.00 in 26.00 W/m2
09:30 41.4 °F 40.6 °F 29.23 in SSW 5.0 mph 12.0 mph 97% 0.00 in 25.00 W/m2
09:35 41.4 °F 40.6 °F 29.23 in SSW 5.0 mph 7.0 mph 97% 0.00 in 32.00 W/m2
09:40 41.4 °F 40.6 °F 29.23 in SSW 5.0 mph 2.9 mph 97% 0.00 in 37.00 W/m2
09:45 41.5 °F 41.0 °F 29.24 in SSW 2.0 mph 5.0 mph 98% 0.00 in 30.00 W/m2
09:50 41.6 °F 41.1 °F 29.24 in South 2.0 mph 6.0 mph 98% 0.00 in 33.00 W/m2
09:55 41.6 °F 41.1 °F 29.24 in South 5.0 mph 13.0 mph 98% 0.00 in 42.00 W/m2
10:00 41.7 °F 41.2 °F 29.25 in South 6.0 mph 13.0 mph 98% 0.00 in 51.00 W/m2
10:05 41.7 °F 41.2 °F 29.25 in South 6.0 mph 12.0 mph 98% 0.00 in 53.00 W/m2
10:10 41.7 °F 41.2 °F 29.25 in SSW 7.0 mph 12.0 mph 98% 0.00 in 53.00 W/m2
10:15 41.8 °F 41.3 °F 29.26 in SSW 7.0 mph 16.0 mph 98% 0.00 in 49.00 W/m2
10:20 41.7 °F 40.9 °F 29.27 in SSW 6.0 mph 16.0 mph 97% 0.00 in 47.00 W/m2
10:25 41.6 °F 40.8 °F 29.27 in South 8.0 mph 12.0 mph 97% 0.00 in 60.00 W/m2
10:30 41.4 °F 40.6 °F 29.28 in South 8.0 mph 12.0 mph 97% 0.00 in 53.00 W/m2
10:35 41.2 °F 40.4 °F 29.28 in South 7.0 mph 14.0 mph 97% 0.00 in 53.00 W/m2
10:40 41.0 °F 39.9 °F 29.29 in South 3.0 mph 12.0 mph 96% 0.00 in 65.00 W/m2
10:45 40.8 °F 39.7 °F 29.30 in South 8.0 mph 14.0 mph 96% 0.00 in 56.00 W/m2
10:50 40.7 °F 39.6 °F 29.30 in South 6.0 mph 12.0 mph 96% 0.00 in 54.00 W/m2
10:55 40.6 °F 39.5 °F 29.30 in South 3.0 mph 12.0 mph 96% 0.01 in 83.00 W/m2
11:00 40.5 °F 39.5 °F 29.31 in South 7.0 mph 10.0 mph 96% 0.00 in 54.00 W/m2
11:05 40.5 °F 39.4 °F 29.32 in South 5.0 mph 12.0 mph 96% 0.00 in 69.00 W/m2
11:10 40.4 °F 39.4 °F 29.32 in South 3.0 mph 12.0 mph 96% 0.00 in 54.00 W/m2
11:15 40.3 °F 39.3 °F 29.33 in SSE 3.0 mph 10.0 mph 96% 0.00 in 46.00 W/m2
11:20 40.2 °F 38.9 °F 29.33 in SSE 3.0 mph 12.0 mph 95% 0.00 in 53.00 W/m2
11:25 40.1 °F 38.8 °F 29.33 in SSE 3.0 mph 10.0 mph 95% 0.00 in 53.00 W/m2
11:30 40.2 °F 38.9 °F 29.34 in SSE 7.0 mph 14.0 mph 95% 0.00 in 63.00 W/m2
11:35 40.3 °F 39.0 °F 29.35 in SSW 5.0 mph 10.0 mph 95% 0.00 in 63.00 W/m2
11:40 40.3 °F 39.0 °F 29.36 in SSW 3.0 mph 7.0 mph 95% 0.00 in 49.00 W/m2
11:45 40.4 °F 39.1 °F 29.36 in SSE 5.0 mph 10.0 mph 95% 0.00 in 69.00 W/m2
11:50 40.4 °F 39.1 °F 29.36 in SSE 5.0 mph 12.0 mph 95% 0.00 in 67.00 W/m2
De Soto, Wisconsin, USA
Compliments of Weather Underground - 2.25 mb